createdAt,value
2023-05-24T00:00:31.822Z,14.20
2023-05-24T00:03:00.087Z,14.20
2023-05-24T00:05:31.057Z,14.20
2023-05-24T00:08:00.658Z,14.10
2023-05-24T00:10:28.588Z,14.10
2023-05-24T00:12:56.638Z,14.10
2023-05-24T00:15:24.710Z,14.20
2023-05-24T00:17:52.772Z,14.20
2023-05-24T00:20:21.215Z,14.10
2023-05-24T00:22:49.440Z,14.10
2023-05-24T00:25:19.075Z,14.10
2023-05-24T00:27:47.020Z,14.00
2023-05-24T00:30:15.172Z,14.10
2023-05-24T00:32:43.160Z,14.10
2023-05-24T00:35:11.699Z,14.10
2023-05-24T00:37:45.038Z,14.10
2023-05-24T00:40:13.400Z,14.10
2023-05-24T00:42:42.729Z,14.10
2023-05-24T00:45:11.532Z,14.10
2023-05-24T00:47:39.693Z,14.10
2023-05-24T00:50:09.372Z,14.10
2023-05-24T00:52:37.888Z,14.10
2023-05-24T00:55:06.890Z,14.10
2023-05-24T00:57:36.154Z,14.10
2023-05-24T01:00:07.819Z,14.00
2023-05-24T01:02:35.958Z,14.00
2023-05-24T01:05:04.352Z,14.00
2023-05-24T01:07:45.092Z,13.90
2023-05-24T01:10:26.250Z,14.00
2023-05-24T01:13:05.690Z,14.00
2023-05-24T01:15:42.889Z,14.00
2023-05-24T01:18:17.185Z,13.90
2023-05-24T01:20:47.452Z,14.00
2023-05-24T01:23:27.440Z,13.90
2023-05-24T01:26:09.938Z,13.90
2023-05-24T01:28:40.822Z,14.00
2023-05-24T01:31:09.708Z,13.90
2023-05-24T01:33:42.429Z,13.90
2023-05-24T01:36:10.757Z,13.80
2023-05-24T01:38:41.169Z,13.90
2023-05-24T01:41:24.611Z,13.90
2023-05-24T01:44:01.456Z,13.80
2023-05-24T01:46:37.293Z,13.80
2023-05-24T01:49:13.582Z,13.80
2023-05-24T01:51:49.851Z,13.80
2023-05-24T01:54:24.128Z,13.80
2023-05-24T01:56:54.568Z,13.80
2023-05-24T01:59:25.224Z,13.70
2023-05-24T02:01:54.306Z,13.70
2023-05-24T02:04:22.366Z,13.70
2023-05-24T02:06:50.430Z,13.70
2023-05-24T02:09:18.524Z,13.60
2023-05-24T02:11:46.453Z,13.50
2023-05-24T02:14:14.672Z,13.50
2023-05-24T02:16:46.955Z,13.50
2023-05-24T02:19:15.503Z,13.50
2023-05-24T02:21:43.464Z,13.50
2023-05-24T02:24:12.755Z,13.40
2023-05-24T02:26:40.821Z,13.40
2023-05-24T02:29:08.823Z,13.40
2023-05-24T02:31:37.060Z,13.40
2023-05-24T02:34:06.462Z,13.40
2023-05-24T02:36:36.209Z,13.30
2023-05-24T02:39:04.956Z,13.30
2023-05-24T02:41:33.235Z,13.30
2023-05-24T02:44:01.155Z,13.30
2023-05-24T02:46:29.178Z,13.30
2023-05-24T02:48:57.163Z,13.20
2023-05-24T02:51:26.646Z,13.10
2023-05-24T02:53:54.691Z,13.10
2023-05-24T02:56:22.842Z,13.10
2023-05-24T02:58:50.889Z,13.10
2023-05-24T03:01:19.781Z,13.00
2023-05-24T03:03:48.141Z,13.00
2023-05-24T03:06:16.355Z,13.00
2023-05-24T03:08:46.034Z,13.00
2023-05-24T03:11:15.577Z,13.00
2023-05-24T03:13:44.378Z,12.90
2023-05-24T03:16:12.797Z,12.90
2023-05-24T03:18:40.849Z,12.90
2023-05-24T03:21:08.998Z,12.80
2023-05-24T03:23:37.059Z,12.80
2023-05-24T03:26:07.324Z,12.80
2023-05-24T03:28:35.759Z,12.70
2023-05-24T03:31:03.988Z,12.60
2023-05-24T03:33:32.110Z,12.60
2023-05-24T03:36:00.489Z,12.50
2023-05-24T03:38:29.213Z,12.50
2023-05-24T03:40:58.566Z,12.60
2023-05-24T03:43:27.969Z,12.50
2023-05-24T03:45:58.796Z,12.60
2023-05-24T03:48:27.005Z,12.60
2023-05-24T03:50:55.046Z,12.50
2023-05-24T03:53:23.572Z,12.60
2023-05-24T03:55:51.996Z,12.60
2023-05-24T03:58:20.106Z,12.50
2023-05-24T04:00:49.521Z,12.40
2023-05-24T04:03:20.121Z,12.40
2023-05-24T04:05:48.990Z,12.40
2023-05-24T04:08:17.007Z,12.40
2023-05-24T04:10:45.196Z,12.40
2023-05-24T04:13:13.895Z,12.40
2023-05-24T04:15:42.045Z,12.50
2023-05-24T04:18:12.956Z,12.50
2023-05-24T04:20:41.446Z,12.50
2023-05-24T04:23:10.833Z,12.50
2023-05-24T04:25:38.801Z,12.50
2023-05-24T04:28:07.490Z,12.40
2023-05-24T04:30:36.799Z,12.50
2023-05-24T04:33:05.475Z,12.40
2023-05-24T04:35:35.589Z,12.40
2023-05-24T04:38:03.991Z,12.40
2023-05-24T04:40:32.242Z,12.40
2023-05-24T04:43:00.199Z,12.40
2023-05-24T04:45:28.125Z,12.50
2023-05-24T04:47:56.157Z,12.40
2023-05-24T04:50:24.648Z,12.30
2023-05-24T04:52:54.016Z,12.40
2023-05-24T04:55:22.162Z,12.40
2023-05-24T04:57:50.068Z,12.40
2023-05-24T05:00:18.609Z,12.30
2023-05-24T05:02:46.657Z,12.40
2023-05-24T05:05:14.711Z,12.50
2023-05-24T05:07:45.410Z,12.50
2023-05-24T05:10:14.892Z,12.50
2023-05-24T05:12:42.923Z,12.50
2023-05-24T05:15:11.471Z,12.50
2023-05-24T05:17:39.468Z,12.50
2023-05-24T05:20:08.655Z,12.50
2023-05-24T05:22:36.880Z,12.50
2023-05-24T05:25:05.169Z,12.50
2023-05-24T05:27:34.491Z,12.40
2023-05-24T05:30:02.446Z,12.40
2023-05-24T05:32:30.409Z,12.50
2023-05-24T05:34:58.546Z,12.50
2023-05-24T05:37:26.460Z,12.60
2023-05-24T05:39:54.487Z,12.60
2023-05-24T05:42:22.493Z,12.70
2023-05-24T05:44:52.628Z,12.70
2023-05-24T05:47:20.766Z,12.70
2023-05-24T05:49:48.734Z,12.70
2023-05-24T05:52:16.859Z,12.70
2023-05-24T05:54:44.770Z,12.80
2023-05-24T05:57:12.913Z,12.80
2023-05-24T05:59:40.886Z,12.80
2023-05-24T06:02:10.277Z,12.70
2023-05-24T06:04:38.296Z,12.60
2023-05-24T06:07:06.699Z,12.60
2023-05-24T06:09:34.698Z,12.70
2023-05-24T06:12:02.716Z,12.70
2023-05-24T06:14:31.675Z,12.80
2023-05-24T06:17:00.381Z,12.80
2023-05-24T06:19:29.820Z,12.80
2023-05-24T06:21:57.895Z,12.90
2023-05-24T06:24:26.022Z,13.00
2023-05-24T06:26:54.159Z,13.10
2023-05-24T06:29:22.578Z,13.20
2023-05-24T06:31:51.230Z,13.20
2023-05-24T06:34:21.599Z,13.30
2023-05-24T06:36:52.841Z,13.40
2023-05-24T06:39:21.074Z,13.30
2023-05-24T06:41:51.216Z,13.40
2023-05-24T06:44:31.738Z,13.40
2023-05-24T06:46:59.845Z,13.50
2023-05-24T06:49:28.326Z,13.30
2023-05-24T06:51:57.708Z,13.20
2023-05-24T06:54:25.744Z,13.10
2023-05-24T06:56:53.872Z,13.10
2023-05-24T06:59:21.833Z,13.10
2023-05-24T07:01:53.424Z,13.10
2023-05-24T07:04:21.454Z,13.00
2023-05-24T07:06:49.592Z,13.10
2023-05-24T07:09:18.841Z,13.10
2023-05-24T07:11:46.898Z,13.10
2023-05-24T07:14:14.837Z,13.20
2023-05-24T07:16:42.745Z,13.20
2023-05-24T07:19:10.731Z,13.10
2023-05-24T07:21:38.674Z,12.90
2023-05-24T07:24:07.152Z,13.00
2023-05-24T07:26:36.641Z,13.00
2023-05-24T07:29:04.550Z,13.00
2023-05-24T07:31:34.739Z,13.00
2023-05-24T07:34:02.659Z,13.00
2023-05-24T07:36:34.695Z,13.00
2023-05-24T07:39:05.051Z,13.00
2023-05-24T07:41:33.513Z,12.90
2023-05-24T07:44:02.942Z,13.00
2023-05-24T07:46:30.924Z,13.10
2023-05-24T07:48:59.058Z,13.30
2023-05-24T07:51:27.042Z,13.40
2023-05-24T07:53:55.019Z,13.60
2023-05-24T07:56:23.744Z,13.60
2023-05-24T07:58:52.182Z,13.70
2023-05-24T08:01:21.393Z,13.50
2023-05-24T08:03:49.870Z,13.70
2023-05-24T08:06:18.264Z,13.70
2023-05-24T08:08:47.726Z,13.80
2023-05-24T08:11:15.982Z,13.90
2023-05-24T08:13:44.944Z,13.80
2023-05-24T08:16:14.175Z,14.00
2023-05-24T08:18:43.496Z,13.90
2023-05-24T08:21:11.580Z,13.70
2023-05-24T08:23:39.492Z,13.70
2023-05-24T08:26:07.625Z,13.70
2023-05-24T08:28:35.866Z,13.70
2023-05-24T08:31:04.469Z,13.80
2023-05-24T08:33:33.054Z,13.80
2023-05-24T08:36:02.276Z,13.90
2023-05-24T08:38:30.204Z,14.00
2023-05-24T08:40:58.155Z,14.00
2023-05-24T08:43:27.691Z,14.20
2023-05-24T08:45:57.080Z,14.30
2023-05-24T08:48:26.157Z,14.40
2023-05-24T08:50:54.648Z,14.50
2023-05-24T08:53:24.732Z,14.50
2023-05-24T08:55:53.325Z,14.40
2023-05-24T08:58:21.283Z,14.40
2023-05-24T09:00:49.276Z,14.20
2023-05-24T09:03:18.469Z,14.10
2023-05-24T09:05:46.692Z,14.20
2023-05-24T09:08:18.062Z,14.20
2023-05-24T09:10:54.618Z,14.20
2023-05-24T09:13:25.507Z,14.00
2023-05-24T09:15:54.099Z,13.90
2023-05-24T09:18:22.106Z,13.90
2023-05-24T09:20:50.167Z,14.00
2023-05-24T09:23:18.870Z,14.10
2023-05-24T09:25:48.856Z,14.20
2023-05-24T09:28:18.667Z,14.20
2023-05-24T09:30:58.264Z,14.30
2023-05-24T09:33:30.182Z,14.30
2023-05-24T09:36:00.476Z,14.20
2023-05-24T09:38:29.620Z,14.20
2023-05-24T09:41:03.872Z,14.30
2023-05-24T09:43:34.531Z,14.30
2023-05-24T09:46:04.620Z,14.30
2023-05-24T09:48:32.980Z,14.20
2023-05-24T09:51:04.842Z,14.20
2023-05-24T09:53:34.165Z,14.30
2023-05-24T09:56:05.360Z,14.20
2023-05-24T09:58:33.933Z,14.10
2023-05-24T10:01:07.368Z,14.20
2023-05-24T10:03:37.333Z,14.10
2023-05-24T10:06:07.695Z,14.10
2023-05-24T10:08:36.527Z,14.00
2023-05-24T10:11:06.888Z,13.90
2023-05-24T10:13:36.200Z,13.80
2023-05-24T10:16:04.487Z,13.80
2023-05-24T10:18:32.645Z,13.80
2023-05-24T10:21:02.766Z,13.90
2023-05-24T10:23:32.506Z,13.90
2023-05-24T10:26:07.526Z,13.80
2023-05-24T10:28:39.402Z,13.80
2023-05-24T10:31:12.422Z,13.80
2023-05-24T10:33:43.405Z,13.80
2023-05-24T10:36:14.083Z,13.90
2023-05-24T10:38:42.136Z,14.00
2023-05-24T10:41:14.002Z,14.00
2023-05-24T10:43:53.745Z,14.10
2023-05-24T10:46:29.113Z,14.00
2023-05-24T10:49:01.557Z,14.10
2023-05-24T10:51:38.363Z,14.30
2023-05-24T10:54:14.641Z,14.30
2023-05-24T10:56:46.221Z,14.40
2023-05-24T10:59:35.090Z,14.60
2023-05-24T11:02:03.868Z,14.60
2023-05-24T11:04:40.013Z,14.60
2023-05-24T11:07:10.339Z,14.70
2023-05-24T11:09:39.427Z,14.90
2023-05-24T11:12:10.232Z,15.20
2023-05-24T11:14:40.447Z,15.30
2023-05-24T11:17:09.338Z,15.50
2023-05-24T11:19:55.117Z,15.60
2023-05-24T11:22:29.696Z,15.90
2023-05-24T11:25:02.532Z,15.90
2023-05-24T11:27:33.135Z,16.10
2023-05-24T11:30:03.895Z,16.30
2023-05-24T11:32:33.434Z,16.60
2023-05-24T11:35:02.128Z,16.80
2023-05-24T11:37:45.207Z,17.20
2023-05-24T11:40:16.384Z,17.20
2023-05-24T11:42:46.867Z,17.50
2023-05-24T11:45:16.380Z,17.50
2023-05-24T11:47:44.357Z,17.60
2023-05-24T11:50:17.221Z,17.80
2023-05-24T11:52:45.188Z,18.00
2023-05-24T11:55:17.004Z,18.20
2023-05-24T11:57:53.294Z,18.40
2023-05-24T12:00:25.942Z,18.80
2023-05-24T12:02:56.891Z,19.00
2023-05-24T12:05:25.282Z,19.20
2023-05-24T12:08:04.730Z,19.30
2023-05-24T12:10:34.261Z,19.30
2023-05-24T12:13:04.166Z,19.50
2023-05-24T12:15:32.640Z,19.70
2023-05-24T12:18:00.811Z,20.10
2023-05-24T12:20:29.558Z,20.40
2023-05-24T12:22:57.650Z,20.60
2023-05-24T12:25:27.107Z,20.70
2023-05-24T12:27:56.841Z,20.70
2023-05-24T12:30:28.262Z,20.10
2023-05-24T12:32:56.331Z,19.70
2023-05-24T12:35:24.987Z,20.00
2023-05-24T12:38:00.094Z,20.60
2023-05-24T12:40:28.221Z,20.90
2023-05-24T12:42:57.953Z,20.90
2023-05-24T12:45:28.640Z,21.10
2023-05-24T12:47:57.723Z,21.30
2023-05-24T12:50:27.506Z,21.80
2023-05-24T12:52:55.657Z,22.50
2023-05-24T12:55:25.412Z,22.50
2023-05-24T12:57:54.550Z,22.00
2023-05-24T13:00:23.624Z,21.60
2023-05-24T13:02:56.054Z,21.10
2023-05-24T13:05:24.696Z,20.60
2023-05-24T13:07:53.487Z,20.50
2023-05-24T13:10:21.748Z,20.20
2023-05-24T13:12:50.491Z,20.00
2023-05-24T13:15:19.454Z,20.00
2023-05-24T13:17:47.789Z,20.00
2023-05-24T13:20:19.077Z,20.40
2023-05-24T13:22:47.019Z,21.40
2023-05-24T13:25:15.619Z,22.50
2023-05-24T13:27:43.597Z,23.00
2023-05-24T13:30:13.464Z,23.50
2023-05-24T13:32:41.557Z,23.90
2023-05-24T13:35:11.359Z,23.50
2023-05-24T13:37:40.934Z,22.60
2023-05-24T13:40:09.941Z,21.80
2023-05-24T13:42:38.241Z,21.40
2023-05-24T13:45:07.724Z,22.00
2023-05-24T13:47:40.445Z,22.90
2023-05-24T13:50:09.967Z,23.70
2023-05-24T13:52:38.007Z,24.50
2023-05-24T13:55:08.862Z,24.30
2023-05-24T13:57:50.382Z,23.70
2023-05-24T14:00:20.538Z,22.90
2023-05-24T14:02:48.799Z,22.60
2023-05-24T14:07:47.972Z,21.80
2023-05-24T14:10:19.316Z,21.70
2023-05-24T14:12:59.534Z,21.80
2023-05-24T14:15:37.176Z,22.30
2023-05-24T14:18:08.497Z,23.10
2023-05-24T14:20:38.062Z,23.70
2023-05-24T14:23:07.553Z,23.00
2023-05-24T14:25:37.109Z,22.00
2023-05-24T14:28:05.370Z,21.30
2023-05-24T14:30:33.462Z,21.00
2023-05-24T14:33:02.485Z,21.50
2023-05-24T14:35:33.308Z,22.70
2023-05-24T14:38:01.287Z,23.30
2023-05-24T14:40:29.268Z,23.20
2023-05-24T14:42:58.662Z,23.20
2023-05-24T14:45:27.187Z,22.50
2023-05-24T14:47:55.169Z,21.70
2023-05-24T14:50:23.293Z,21.50
2023-05-24T14:52:53.179Z,22.10
2023-05-24T14:55:23.123Z,23.40
2023-05-24T14:57:51.758Z,24.30
2023-05-24T15:00:23.625Z,25.00
2023-05-24T15:02:52.659Z,25.50
2023-05-24T15:05:20.689Z,25.60
2023-05-24T15:07:48.695Z,25.10
2023-05-24T15:10:16.699Z,25.10
2023-05-24T15:12:45.551Z,25.30
2023-05-24T15:15:13.591Z,25.50
2023-05-24T15:17:42.996Z,24.90
2023-05-24T15:20:11.815Z,24.30
2023-05-24T15:22:39.746Z,23.50
2023-05-24T15:25:09.261Z,22.50
2023-05-24T15:27:37.247Z,22.00
2023-05-24T15:30:05.959Z,22.40
2023-05-24T15:32:33.822Z,23.20
2023-05-24T15:35:03.291Z,24.00
2023-05-24T15:37:31.573Z,24.70
2023-05-24T15:39:59.484Z,25.50
2023-05-24T15:42:27.425Z,25.90
2023-05-24T15:44:55.274Z,26.20
2023-05-24T15:47:27.780Z,26.30
2023-05-24T15:49:55.824Z,26.30
2023-05-24T15:52:25.137Z,26.40
2023-05-24T15:54:53.067Z,26.20
2023-05-24T15:57:21.060Z,26.30
2023-05-24T15:59:48.955Z,26.40
2023-05-24T16:04:45.464Z,26.00
2023-05-24T16:07:13.444Z,25.80
2023-05-24T16:09:42.773Z,25.50
2023-05-24T16:12:10.853Z,25.60
2023-05-24T16:14:38.811Z,25.80
2023-05-24T16:17:07.445Z,25.60
2023-05-24T16:19:35.434Z,24.90
2023-05-24T16:22:03.564Z,23.40
2023-05-24T16:24:31.780Z,23.10
2023-05-24T16:27:01.636Z,23.10
2023-05-24T16:29:30.220Z,23.40
2023-05-24T16:31:58.163Z,23.60
2023-05-24T16:34:26.282Z,23.50
2023-05-24T16:36:54.383Z,22.70
2023-05-24T16:39:22.339Z,21.30
2023-05-24T16:41:50.447Z,21.10
2023-05-24T16:44:19.734Z,21.20
2023-05-24T16:46:48.127Z,21.40
2023-05-24T16:49:16.718Z,20.90
2023-05-24T16:51:44.669Z,20.60
2023-05-24T16:54:12.575Z,20.80
2023-05-24T16:56:40.571Z,21.10
2023-05-24T16:59:08.453Z,20.70
2023-05-24T17:01:38.436Z,19.70
2023-05-24T17:04:06.472Z,19.00
2023-05-24T17:06:34.392Z,18.40
2023-05-24T17:09:02.304Z,18.00
2023-05-24T17:11:30.187Z,17.70
2023-05-24T17:13:58.290Z,17.50
2023-05-24T17:16:28.443Z,17.40
2023-05-24T17:18:58.056Z,17.20
2023-05-24T17:21:27.797Z,17.10
2023-05-24T17:23:56.636Z,16.80
2023-05-24T17:26:26.361Z,16.60
2023-05-24T17:28:54.433Z,16.60
2023-05-24T17:31:22.424Z,16.50
2023-05-24T17:33:50.522Z,16.50
2023-05-24T17:36:19.840Z,16.50
2023-05-24T17:38:47.741Z,16.40
2023-05-24T17:41:15.735Z,16.40
2023-05-24T17:43:44.274Z,16.30
2023-05-24T17:46:13.492Z,16.30
2023-05-24T17:48:42.753Z,16.30
2023-05-24T17:51:11.792Z,16.30
2023-05-24T17:53:43.450Z,16.20
2023-05-24T17:56:11.448Z,16.10
2023-05-24T17:58:39.688Z,16.10
2023-05-24T18:01:09.245Z,16.10
2023-05-24T18:03:38.638Z,16.10
2023-05-24T18:06:07.818Z,16.10
2023-05-24T18:08:37.748Z,16.10
2023-05-24T18:11:09.482Z,16.00
2023-05-24T18:13:38.251Z,16.00
2023-05-24T18:16:06.886Z,15.90
2023-05-24T18:18:35.301Z,15.80
2023-05-24T18:21:03.203Z,15.80
2023-05-24T18:23:33.151Z,15.70
2023-05-24T18:26:03.120Z,15.70
2023-05-24T18:28:32.696Z,15.60
2023-05-24T18:31:00.866Z,15.50
2023-05-24T18:33:28.849Z,15.50
2023-05-24T18:35:57.064Z,15.50
2023-05-24T18:38:25.020Z,15.50
2023-05-24T18:40:52.917Z,15.40
2023-05-24T18:43:20.902Z,15.40
2023-05-24T18:45:50.404Z,15.30
2023-05-24T18:48:18.456Z,15.20
2023-05-24T18:50:48.304Z,15.20
2023-05-24T18:53:16.274Z,15.10
2023-05-24T18:55:44.858Z,15.10
2023-05-24T18:58:13.089Z,15.10
2023-05-24T19:00:41.258Z,15.10
2023-05-24T19:03:13.131Z,15.00
2023-05-24T19:05:43.576Z,14.90
2023-05-24T19:08:12.228Z,14.90
2023-05-24T19:10:40.199Z,14.80
2023-05-24T19:13:08.223Z,14.80
2023-05-24T19:15:37.274Z,14.80
2023-05-24T19:18:05.954Z,14.70
2023-05-24T19:20:35.410Z,14.70
2023-05-24T19:23:03.748Z,14.70
2023-05-24T19:25:32.120Z,14.60
2023-05-24T19:28:00.918Z,14.70
2023-05-24T19:30:29.325Z,14.60
2023-05-24T19:32:57.283Z,14.70
2023-05-24T19:35:25.252Z,14.60
2023-05-24T19:37:54.536Z,14.60
2023-05-24T19:40:22.412Z,14.50
2023-05-24T19:42:50.293Z,14.40
2023-05-24T19:45:18.244Z,14.30
2023-05-24T19:47:46.330Z,14.20
2023-05-24T19:50:14.425Z,14.10
2023-05-24T19:52:42.329Z,13.90
2023-05-24T19:55:11.862Z,13.80
2023-05-24T19:57:39.776Z,13.70
2023-05-24T20:00:08.848Z,13.60
2023-05-24T20:02:39.525Z,13.50
2023-05-24T20:05:08.894Z,13.30
2023-05-24T20:07:36.819Z,13.20
2023-05-24T20:10:05.695Z,13.10
2023-05-24T20:12:34.999Z,12.80
2023-05-24T20:15:03.319Z,12.50
2023-05-24T20:17:31.262Z,12.20
2023-05-24T20:19:59.289Z,12.10
2023-05-24T20:22:27.465Z,11.90
2023-05-24T20:24:55.636Z,11.80
2023-05-24T20:27:23.538Z,11.70
2023-05-24T20:29:52.981Z,11.70
2023-05-24T20:32:20.937Z,11.60
2023-05-24T20:34:48.910Z,11.50
2023-05-24T20:37:16.851Z,11.40
2023-05-24T20:39:45.389Z,11.20
2023-05-24T20:42:13.575Z,11.10
2023-05-24T20:44:41.484Z,11.00
2023-05-24T20:47:10.844Z,10.80
2023-05-24T20:49:38.810Z,10.80
2023-05-24T20:52:06.964Z,10.80
2023-05-24T20:54:34.975Z,10.70
2023-05-24T20:57:03.007Z,10.60
2023-05-24T20:59:31.144Z,10.50
2023-05-24T21:01:59.072Z,10.60
2023-05-24T21:04:28.382Z,10.50
2023-05-24T21:06:56.282Z,10.50
2023-05-24T21:09:24.203Z,10.50
2023-05-24T21:11:52.240Z,10.40
2023-05-24T21:14:20.213Z,10.40
2023-05-24T21:16:48.120Z,10.40
2023-05-24T21:19:16.233Z,10.20
2023-05-24T21:21:45.507Z,10.10
2023-05-24T21:24:15.771Z,10.00
2023-05-24T21:26:43.714Z,9.90
2023-05-24T21:29:13.228Z,9.90
2023-05-24T21:31:41.390Z,9.80
2023-05-24T21:34:09.401Z,9.70
2023-05-24T21:36:37.672Z,9.70
2023-05-24T21:39:08.287Z,9.70
2023-05-24T21:41:37.092Z,9.60
2023-05-24T21:44:06.853Z,9.50
2023-05-24T21:46:34.965Z,9.40
2023-05-24T21:49:02.932Z,9.20
2023-05-24T21:51:30.878Z,9.20
2023-05-24T21:53:58.807Z,9.30
2023-05-24T21:56:28.088Z,9.30
2023-05-24T21:58:56.014Z,9.40
2023-05-24T22:01:23.995Z,9.40
2023-05-24T22:03:51.983Z,9.40
2023-05-24T22:06:19.991Z,9.40
2023-05-24T22:08:48.215Z,9.50
2023-05-24T22:11:16.774Z,9.50
2023-05-24T22:13:46.378Z,9.50
2023-05-24T22:16:14.440Z,9.60
2023-05-24T22:18:42.374Z,9.60
2023-05-24T22:21:10.354Z,9.70
2023-05-24T22:23:38.317Z,9.80
2023-05-24T22:26:06.538Z,9.90
2023-05-24T22:31:28.985Z,10.00
2023-05-24T22:34:00.967Z,10.10
2023-05-24T22:36:29.896Z,10.10
2023-05-24T22:38:57.824Z,10.10
2023-05-24T22:41:26.110Z,10.10
2023-05-24T22:43:54.405Z,10.10
2023-05-24T22:46:23.044Z,10.10
2023-05-24T22:48:53.162Z,10.20
2023-05-24T22:51:21.230Z,10.20
2023-05-24T22:53:52.305Z,10.10
2023-05-24T22:56:20.641Z,10.10
2023-05-24T22:58:48.738Z,10.10
2023-05-24T23:01:17.315Z,10.20
2023-05-24T23:03:45.654Z,10.20
2023-05-24T23:06:15.582Z,10.20
2023-05-24T23:08:43.670Z,10.20
2023-05-24T23:11:11.837Z,10.20
2023-05-24T23:13:42.316Z,10.10
2023-05-24T23:16:10.480Z,10.00
2023-05-24T23:18:42.756Z,9.90
2023-05-24T23:21:11.111Z,9.80
2023-05-24T23:23:40.410Z,9.80
2023-05-24T23:26:08.396Z,9.80
2023-05-24T23:28:36.419Z,9.80
2023-05-24T23:31:04.492Z,9.80
2023-05-24T23:33:32.517Z,9.70
2023-05-24T23:36:00.535Z,9.70
2023-05-24T23:38:28.457Z,9.50
2023-05-24T23:40:57.802Z,9.50
2023-05-24T23:43:25.804Z,9.60
2023-05-24T23:45:53.727Z,9.60
2023-05-24T23:48:22.650Z,9.70
2023-05-24T23:50:54.464Z,9.70
2023-05-24T23:53:23.004Z,9.70
2023-05-24T23:55:51.126Z,9.80
2023-05-24T23:58:20.706Z,9.70
